createdAt,value
2018-05-15T00:00:20.138Z,11.47
2018-05-15T00:02:47.609Z,15.77
2018-05-15T00:05:15.161Z,13.37
2018-05-15T00:07:42.629Z,11.03
2018-05-15T00:10:10.093Z,11.30
2018-05-15T00:12:38.350Z,12.43
2018-05-15T00:15:05.820Z,12.07
2018-05-15T00:17:33.280Z,12.70
2018-05-15T00:20:01.534Z,13.30
2018-05-15T00:22:29.002Z,13.10
2018-05-15T00:24:56.469Z,13.27
2018-05-15T00:27:23.941Z,13.00
2018-05-15T00:29:52.176Z,13.37
2018-05-15T00:32:19.753Z,13.67
2018-05-15T00:34:47.232Z,12.80
2018-05-15T00:37:15.498Z,12.90
2018-05-15T00:39:43.050Z,12.67
2018-05-15T00:42:10.525Z,13.83
2018-05-15T00:44:38.756Z,13.07
2018-05-15T00:47:06.216Z,13.13
2018-05-15T00:49:33.697Z,13.53
2018-05-15T00:52:01.256Z,13.07
2018-05-15T00:54:28.825Z,13.53
2018-05-15T00:56:56.381Z,12.63
2018-05-15T00:59:23.941Z,14.33
2018-05-15T01:01:51.502Z,13.23
2018-05-15T01:04:18.969Z,14.63
2018-05-15T01:06:46.525Z,14.07
2018-05-15T01:09:13.988Z,13.43
2018-05-15T01:11:41.540Z,14.00
2018-05-15T01:14:09.097Z,13.83
2018-05-15T01:16:36.652Z,15.10
2018-05-15T01:19:04.221Z,15.13
2018-05-15T01:21:31.693Z,13.30
2018-05-15T01:23:59.944Z,17.10
2018-05-15T01:26:27.520Z,14.50
2018-05-15T01:28:55.077Z,15.23
2018-05-15T01:31:22.546Z,16.63
2018-05-15T01:33:50.089Z,17.07
2018-05-15T01:36:17.657Z,21.83
2018-05-15T01:38:45.212Z,16.97
2018-05-15T01:41:12.777Z,18.23
2018-05-15T01:43:40.333Z,17.73
2018-05-15T01:46:07.797Z,16.30
2018-05-15T01:48:35.269Z,16.67
2018-05-15T01:51:03.505Z,17.47
2018-05-15T01:53:30.977Z,17.60
2018-05-15T01:55:58.549Z,17.63
2018-05-15T01:58:26.109Z,18.50
2018-05-15T02:00:53.569Z,17.80
2018-05-15T02:03:21.037Z,16.80
2018-05-15T02:05:48.501Z,17.67
2018-05-15T02:08:16.760Z,17.00
2018-05-15T02:10:44.233Z,17.43
2018-05-15T02:13:12.493Z,18.97
2018-05-15T02:15:40.048Z,18.10
2018-05-15T02:18:07.613Z,17.90
2018-05-15T02:20:35.177Z,18.47
2018-05-15T02:23:02.691Z,19.73
2018-05-15T02:25:30.252Z,18.50
2018-05-15T02:27:57.701Z,19.33
2018-05-15T02:30:25.182Z,20.37
2018-05-15T02:32:52.669Z,19.30
2018-05-15T02:35:20.229Z,18.77
2018-05-15T02:37:47.701Z,18.73
2018-05-15T02:40:15.168Z,19.60
2018-05-15T02:42:43.418Z,19.43
2018-05-15T02:45:10.891Z,18.83
2018-05-15T02:47:38.365Z,19.60
2018-05-15T02:50:06.597Z,21.03
2018-05-15T02:52:34.133Z,20.83
2018-05-15T02:55:01.633Z,19.93
2018-05-15T02:57:29.101Z,21.23
2018-05-15T02:59:56.652Z,20.97
2018-05-15T03:02:24.213Z,21.97
2018-05-15T03:04:51.680Z,23.07
2018-05-15T03:07:19.151Z,22.27
2018-05-15T03:09:47.389Z,22.20
2018-05-15T03:12:14.857Z,22.30
2018-05-15T03:14:42.425Z,23.60
2018-05-15T03:17:10.043Z,21.67
2018-05-15T03:19:37.549Z,22.43
2018-05-15T03:22:05.104Z,23.93
2018-05-15T03:24:32.667Z,23.50
2018-05-15T03:27:00.132Z,22.87
2018-05-15T03:29:27.592Z,24.07
2018-05-15T03:31:55.061Z,22.70
2018-05-15T03:34:23.316Z,24.00
2018-05-15T03:36:50.791Z,23.73
2018-05-15T03:39:18.248Z,22.10
2018-05-15T03:41:46.484Z,23.03
2018-05-15T03:44:13.957Z,22.57
2018-05-15T03:46:41.417Z,23.87
2018-05-15T03:49:08.880Z,24.70
2018-05-15T03:51:36.440Z,24.50
2018-05-15T03:54:04.005Z,24.57
2018-05-15T03:56:31.464Z,25.17
2018-05-15T03:58:58.925Z,23.80
2018-05-15T04:01:38.301Z,24.93
2018-05-15T04:04:17.693Z,25.00
2018-05-15T04:06:57.108Z,24.93
2018-05-15T04:09:24.584Z,24.33
2018-05-15T04:11:52.153Z,25.33
2018-05-15T04:14:21.000Z,24.23
2018-05-15T04:16:48.457Z,24.93
2018-05-15T04:19:15.929Z,23.60
2018-05-15T04:21:43.396Z,24.27
2018-05-15T04:24:10.876Z,24.50
2018-05-15T04:26:38.433Z,24.77
2018-05-15T04:29:05.900Z,25.23
2018-05-15T04:31:33.448Z,22.93
2018-05-15T04:34:01.017Z,22.87
2018-05-15T04:36:28.577Z,22.63
2018-05-15T04:38:56.137Z,22.27
2018-05-15T04:41:23.612Z,23.23
2018-05-15T04:43:51.349Z,24.77
2018-05-15T04:46:18.712Z,22.30
2018-05-15T04:48:46.271Z,22.10
2018-05-15T04:51:13.744Z,23.13
2018-05-15T04:53:41.295Z,33.23
2018-05-15T04:56:08.770Z,23.67
2018-05-15T04:58:37.010Z,24.77
2018-05-15T05:01:04.487Z,21.23
2018-05-15T05:03:31.953Z,20.70
2018-05-15T05:05:59.500Z,20.17
2018-05-15T05:08:26.999Z,18.90
2018-05-15T05:10:54.440Z,19.03
2018-05-15T05:13:22.696Z,17.53
2018-05-15T05:15:50.261Z,16.93
2018-05-15T05:18:17.879Z,17.60
2018-05-15T05:20:45.372Z,18.43
2018-05-15T05:23:12.840Z,17.10
2018-05-15T05:25:40.397Z,14.83
2018-05-15T05:28:07.956Z,13.63
2018-05-15T05:30:35.426Z,12.13
2018-05-15T05:33:02.900Z,11.60
2018-05-15T05:35:31.155Z,11.43
2018-05-15T05:37:58.628Z,15.20
2018-05-15T05:40:26.860Z,13.77
2018-05-15T05:42:54.330Z,10.67
2018-05-15T05:45:21.795Z,10.40
2018-05-15T05:47:49.265Z,10.10
2018-05-15T05:50:16.728Z,10.27
2018-05-15T05:52:44.204Z,10.07
2018-05-15T05:55:12.428Z,9.30
2018-05-15T05:57:39.910Z,8.43
2018-05-15T06:00:07.472Z,6.50
2018-05-15T06:02:35.029Z,6.30
2018-05-15T06:05:02.501Z,6.20
2018-05-15T06:07:30.764Z,6.20
2018-05-15T06:09:58.323Z,5.87
2018-05-15T06:12:25.784Z,6.40
2018-05-15T06:14:53.240Z,5.67
2018-05-15T06:17:20.801Z,5.87
2018-05-15T06:19:49.024Z,6.70
2018-05-15T06:22:16.482Z,6.23
2018-05-15T06:24:44.714Z,5.93
2018-05-15T06:27:12.181Z,6.30
2018-05-15T06:29:39.724Z,6.70
2018-05-15T06:32:07.297Z,6.00
2018-05-15T06:34:34.762Z,6.10
2018-05-15T06:37:02.306Z,6.23
2018-05-15T06:39:29.873Z,6.40
2018-05-15T06:41:57.490Z,6.47
2018-05-15T06:44:24.984Z,6.40
2018-05-15T06:46:52.448Z,6.37
2018-05-15T06:49:20.013Z,6.60
2018-05-15T06:51:47.528Z,6.13
2018-05-15T06:54:14.976Z,7.50
2018-05-15T06:56:42.546Z,7.40
2018-05-15T06:59:10.040Z,6.70
2018-05-15T07:01:37.612Z,6.73
2018-05-15T07:04:05.173Z,6.90
2018-05-15T07:06:32.724Z,6.63
2018-05-15T07:09:01.011Z,6.33
2018-05-15T07:11:28.478Z,6.10
2018-05-15T07:13:55.938Z,6.47
2018-05-15T07:16:23.396Z,6.60
2018-05-15T07:18:50.860Z,6.50
2018-05-15T07:21:19.077Z,6.83
2018-05-15T07:23:46.532Z,6.73
2018-05-15T07:26:13.992Z,6.37
2018-05-15T07:28:41.452Z,6.67
2018-05-15T07:31:08.941Z,6.53
2018-05-15T07:33:36.396Z,7.10
2018-05-15T07:36:03.852Z,6.70
2018-05-15T07:38:31.310Z,6.53
2018-05-15T07:40:58.764Z,7.03
2018-05-15T07:43:26.221Z,6.63
2018-05-15T07:45:53.754Z,6.57
2018-05-15T07:48:21.344Z,7.33
2018-05-15T07:50:48.709Z,6.70
2018-05-15T07:53:16.268Z,7.10
2018-05-15T07:55:43.836Z,6.63
2018-05-15T07:58:11.396Z,6.53
2018-05-15T08:00:38.949Z,9.77
2018-05-15T08:03:06.509Z,7.23
2018-05-15T08:05:33.979Z,6.27
2018-05-15T08:08:02.208Z,6.47
2018-05-15T08:10:29.706Z,6.50
2018-05-15T08:12:57.477Z,6.63
2018-05-15T08:15:25.034Z,8.27
2018-05-15T08:17:52.488Z,6.60
2018-05-15T08:20:19.948Z,7.80
2018-05-15T08:22:47.416Z,7.37
2018-05-15T08:25:14.877Z,7.47
2018-05-15T08:27:42.349Z,7.10
2018-05-15T08:30:10.572Z,7.60
2018-05-15T08:32:38.037Z,7.17
2018-05-15T08:35:05.537Z,6.50
2018-05-15T08:37:33.893Z,6.97
2018-05-15T08:40:01.357Z,7.33
2018-05-15T08:42:28.820Z,7.20
2018-05-15T08:44:56.409Z,7.50
2018-05-15T08:47:24.628Z,7.70
2018-05-15T08:49:52.088Z,7.13
2018-05-15T08:52:19.551Z,7.33
2018-05-15T08:54:47.019Z,6.40
2018-05-15T08:57:14.582Z,6.97
2018-05-15T08:59:42.141Z,8.30
2018-05-15T09:02:09.700Z,6.67
2018-05-15T09:04:37.157Z,6.97
2018-05-15T09:07:04.721Z,6.00
2018-05-15T09:09:32.176Z,6.20
2018-05-15T09:11:59.636Z,7.07
2018-05-15T09:14:27.194Z,6.00
2018-05-15T09:16:54.652Z,5.97
2018-05-15T09:19:22.217Z,6.03
2018-05-15T09:21:49.768Z,6.30
2018-05-15T09:24:17.337Z,6.00
2018-05-15T09:26:44.792Z,6.83
2018-05-15T09:29:12.270Z,6.17
2018-05-15T09:31:39.716Z,6.43
2018-05-15T09:34:07.178Z,6.03
2018-05-15T09:36:34.729Z,5.87
2018-05-15T09:39:02.189Z,6.60
2018-05-15T09:41:29.660Z,6.10
2018-05-15T09:43:57.117Z,6.63
2018-05-15T09:46:24.663Z,6.83
2018-05-15T09:48:52.124Z,6.53
2018-05-15T09:51:20.392Z,6.40
2018-05-15T09:53:47.957Z,6.57
2018-05-15T09:56:15.412Z,6.13
2018-05-15T09:58:42.870Z,6.67
2018-05-15T10:01:10.333Z,6.90
2018-05-15T10:03:37.896Z,6.50
2018-05-15T10:06:05.448Z,6.77
2018-05-15T10:08:33.013Z,6.30
2018-05-15T10:11:00.576Z,6.47
2018-05-15T10:13:28.137Z,6.97
2018-05-15T10:15:55.601Z,6.67
2018-05-15T10:18:23.147Z,7.13
2018-05-15T10:20:50.604Z,6.03
2018-05-15T10:23:18.169Z,6.60
2018-05-15T10:25:45.624Z,6.33
2018-05-15T10:28:13.185Z,6.77
2018-05-15T10:30:40.744Z,8.87
2018-05-15T10:33:08.208Z,6.90
2018-05-15T10:35:35.767Z,7.87
2018-05-15T10:38:03.320Z,8.73
2018-05-15T10:40:30.781Z,9.37
2018-05-15T10:42:58.244Z,9.73
2018-05-15T10:45:25.706Z,10.07
2018-05-15T10:47:53.265Z,9.43
2018-05-15T10:50:21.543Z,11.07
2018-05-15T10:52:49.000Z,11.03
2018-05-15T10:55:16.475Z,13.30
2018-05-15T10:57:43.935Z,12.00
2018-05-15T11:00:12.250Z,11.30
2018-05-15T11:02:39.701Z,11.90
2018-05-15T11:05:07.209Z,11.17
2018-05-15T11:07:34.679Z,12.23
2018-05-15T11:10:02.149Z,11.13
2018-05-15T11:12:30.389Z,12.53
2018-05-15T11:14:57.862Z,10.67
2018-05-15T11:17:25.420Z,11.60
2018-05-15T11:20:04.665Z,10.37
2018-05-15T11:22:44.152Z,10.33
2018-05-15T11:25:11.600Z,9.90
2018-05-15T11:27:39.092Z,9.43
2018-05-15T11:30:06.565Z,8.40
2018-05-15T11:32:34.129Z,15.43
2018-05-15T11:35:01.692Z,9.63
2018-05-15T11:37:29.310Z,8.37
2018-05-15T11:39:56.767Z,8.17
2018-05-15T11:42:24.215Z,7.83
2018-05-15T11:44:51.669Z,8.83
2018-05-15T11:47:19.156Z,8.90
2018-05-15T11:49:47.034Z,9.17
2018-05-15T11:52:14.964Z,10.27
2018-05-15T11:54:41.540Z,10.00
2018-05-15T11:57:09.012Z,10.23
2018-05-15T11:59:36.575Z,10.67
2018-05-15T12:02:04.033Z,9.70
2018-05-15T12:04:31.589Z,9.90
2018-05-15T12:06:59.165Z,10.57
2018-05-15T12:09:26.632Z,9.67
2018-05-15T12:11:54.882Z,10.67
2018-05-15T12:14:22.453Z,10.43
2018-05-15T12:16:50.729Z,9.80
2018-05-15T12:19:18.288Z,11.00
2018-05-15T12:21:45.759Z,10.90
2018-05-15T12:24:13.301Z,10.77
2018-05-15T12:26:40.869Z,10.57
2018-05-15T12:29:08.428Z,10.97
2018-05-15T12:31:35.889Z,10.77
2018-05-15T12:34:03.445Z,11.97
2018-05-15T12:36:31.000Z,11.20
2018-05-15T12:38:58.460Z,11.30
2018-05-15T12:41:25.931Z,10.43
2018-05-15T12:43:53.397Z,12.00
2018-05-15T12:46:20.856Z,12.87
2018-05-15T12:48:49.207Z,11.13
2018-05-15T12:51:16.678Z,10.30
2018-05-15T12:53:44.236Z,9.27
2018-05-15T12:56:11.693Z,9.10
2018-05-15T12:58:39.256Z,9.20
2018-05-15T13:01:06.817Z,10.03
2018-05-15T13:03:34.369Z,8.83
2018-05-15T13:06:01.995Z,9.53
2018-05-15T13:08:29.501Z,14.07
2018-05-15T13:10:56.957Z,10.80
2018-05-15T13:13:24.513Z,11.87
2018-05-15T13:15:51.977Z,10.77
2018-05-15T13:18:19.574Z,11.73
2018-05-15T13:20:47.012Z,11.63
2018-05-15T13:23:14.507Z,12.23
2018-05-15T13:25:41.962Z,13.57
2018-05-15T13:28:09.429Z,14.40
2018-05-15T13:30:36.984Z,12.37
2018-05-15T13:33:04.445Z,13.00
2018-05-15T13:35:31.949Z,12.30
2018-05-15T13:37:59.421Z,12.37
2018-05-15T13:40:26.880Z,13.23
2018-05-15T13:42:55.138Z,11.97
2018-05-15T13:45:22.755Z,11.77
2018-05-15T13:47:50.256Z,11.57
2018-05-15T13:50:17.712Z,11.33
2018-05-15T13:52:45.189Z,10.20
2018-05-15T13:55:12.648Z,11.40
2018-05-15T13:57:40.934Z,10.93
2018-05-15T14:00:08.475Z,12.17
2018-05-15T14:02:36.029Z,10.70
2018-05-15T14:05:03.498Z,9.70
2018-05-15T14:07:30.952Z,9.30
2018-05-15T14:09:58.504Z,7.83
2018-05-15T14:12:25.968Z,6.63
2018-05-15T14:14:53.421Z,7.90
2018-05-15T14:17:20.985Z,6.60
2018-05-15T14:19:48.537Z,7.00
2018-05-15T14:22:16.161Z,7.23
2018-05-15T14:24:43.663Z,7.70
2018-05-15T14:27:11.073Z,7.20
2018-05-15T14:29:38.573Z,7.00
2018-05-15T14:32:06.036Z,8.93
2018-05-15T14:34:33.553Z,8.70
2018-05-15T14:37:01.049Z,6.50
2018-05-15T14:39:28.613Z,6.53
2018-05-15T14:42:07.949Z,5.57
2018-05-15T14:44:35.917Z,5.77
2018-05-15T14:47:03.382Z,6.93
2018-05-15T14:49:30.933Z,6.07
2018-05-15T14:51:58.499Z,6.23
2018-05-15T14:54:25.960Z,5.07
2018-05-15T14:56:53.421Z,5.00
2018-05-15T14:59:20.977Z,4.53
2018-05-15T15:01:48.444Z,7.53
2018-05-15T15:04:15.897Z,5.10
2018-05-15T15:06:43.356Z,5.50
2018-05-15T15:09:10.904Z,5.20
2018-05-15T15:11:38.474Z,4.93
2018-05-15T15:14:05.929Z,4.30
2018-05-15T15:16:33.484Z,4.90
2018-05-15T15:19:00.944Z,5.80
2018-05-15T15:21:28.404Z,7.47
2018-05-15T15:23:55.922Z,5.50
2018-05-15T15:26:23.420Z,4.23
2018-05-15T15:28:50.884Z,4.23
2018-05-15T15:31:18.440Z,6.93
2018-05-15T15:33:45.997Z,4.57
2018-05-15T15:36:13.556Z,5.83
2018-05-15T15:38:41.017Z,4.37
2018-05-15T15:41:08.476Z,9.37
2018-05-15T15:43:36.034Z,6.10
2018-05-15T15:46:03.496Z,4.87
2018-05-15T15:48:30.953Z,4.10
2018-05-15T15:50:58.517Z,4.53
2018-05-15T15:53:26.069Z,4.93
2018-05-15T15:55:53.539Z,5.50
2018-05-15T15:58:20.994Z,6.30
2018-05-15T16:00:48.550Z,4.30
2018-05-15T16:03:16.056Z,5.20
2018-05-15T16:05:43.470Z,4.30
2018-05-15T16:08:10.928Z,4.23
2018-05-15T16:10:38.487Z,4.10
2018-05-15T16:13:06.041Z,4.70
2018-05-15T16:15:33.667Z,4.50
2018-05-15T16:18:01.067Z,4.43
2018-05-15T16:20:28.620Z,5.97
2018-05-15T16:22:56.180Z,5.73
2018-05-15T16:25:23.741Z,6.23
2018-05-15T16:27:51.201Z,6.60
2018-05-15T16:30:18.764Z,6.97
2018-05-15T16:32:46.320Z,6.97
2018-05-15T16:35:13.785Z,7.10
2018-05-15T16:37:41.276Z,6.33
2018-05-15T16:40:08.756Z,7.00
2018-05-15T16:42:36.257Z,6.97
2018-05-15T16:45:04.501Z,6.83
2018-05-15T16:47:32.024Z,7.13
2018-05-15T16:49:59.445Z,6.10
2018-05-15T16:52:26.901Z,6.90
2018-05-15T16:54:54.468Z,6.07
2018-05-15T16:57:21.954Z,5.00
2018-05-15T16:59:50.271Z,3.70
2018-05-15T17:02:17.721Z,4.33
2018-05-15T17:04:45.185Z,3.23
2018-05-15T17:07:12.665Z,3.80
2018-05-15T17:09:40.140Z,4.77
2018-05-15T17:12:07.701Z,4.57
2018-05-15T17:14:35.160Z,4.20
2018-05-15T17:17:02.734Z,4.33
2018-05-15T17:19:30.281Z,4.50
2018-05-15T17:21:57.750Z,4.80
2018-05-15T17:24:25.257Z,4.03
2018-05-15T17:26:52.675Z,6.03
2018-05-15T17:29:20.133Z,4.63
2018-05-15T17:31:47.589Z,7.40
2018-05-15T17:34:15.129Z,6.23
2018-05-15T17:36:42.596Z,6.50
2018-05-15T17:39:10.141Z,4.73
2018-05-15T17:41:37.597Z,7.10
2018-05-15T17:44:05.161Z,6.43
2018-05-15T17:46:32.725Z,9.30
2018-05-15T17:49:00.187Z,9.37
2018-05-15T17:51:27.656Z,9.53
2018-05-15T17:53:55.112Z,10.43
2018-05-15T17:56:22.653Z,12.00
2018-05-15T17:58:50.222Z,11.17
2018-05-15T18:01:18.558Z,11.47
2018-05-15T18:03:46.010Z,4.87
2018-05-15T18:06:13.468Z,8.93
2018-05-15T18:08:40.925Z,4.67
2018-05-15T18:11:08.490Z,11.03
2018-05-15T18:13:35.939Z,6.07
2018-05-15T18:16:03.448Z,27.73
2018-05-15T18:18:30.921Z,9.70
2018-05-15T18:20:59.254Z,70.73
2018-05-15T18:23:26.640Z,49.83
2018-05-15T18:25:54.196Z,12.47
2018-05-15T18:28:21.825Z,82.70
2018-05-15T18:30:49.328Z,77.63
2018-05-15T18:33:17.259Z,21.57
2018-05-15T18:35:44.867Z,17.27
2018-05-15T18:38:12.205Z,83.13
2018-05-15T18:40:39.765Z,6.43
2018-05-15T18:43:07.329Z,46.13
2018-05-15T18:45:34.796Z,59.83
2018-05-15T18:48:03.023Z,30.93
2018-05-15T18:50:30.481Z,8.57
2018-05-15T18:52:57.976Z,7.70
2018-05-15T18:55:25.536Z,7.53
2018-05-15T18:57:53.001Z,6.60
2018-05-15T19:00:20.467Z,10.70
2018-05-15T19:02:47.928Z,8.47
2018-05-15T19:05:15.390Z,7.70
2018-05-15T19:07:42.849Z,8.53
2018-05-15T19:10:10.397Z,12.00
2018-05-15T19:12:37.961Z,12.20
2018-05-15T19:15:05.514Z,9.47
2018-05-15T19:17:32.984Z,7.20
2018-05-15T19:20:00.449Z,14.90
2018-05-15T19:22:28.700Z,10.23
2018-05-15T19:24:56.264Z,8.60
2018-05-15T19:27:23.724Z,9.57
2018-05-15T19:29:51.185Z,9.50
2018-05-15T19:32:19.424Z,9.47
2018-05-15T19:34:52.492Z,10.23
2018-05-15T19:37:19.962Z,10.70
2018-05-15T19:39:47.464Z,23.33
2018-05-15T19:42:15.026Z,10.30
2018-05-15T19:44:42.589Z,8.37
2018-05-15T19:47:10.065Z,14.50
2018-05-15T19:49:38.305Z,10.07
2018-05-15T19:52:05.879Z,18.27
2018-05-15T19:54:33.366Z,8.87
2018-05-15T19:57:00.817Z,7.63
2018-05-15T19:59:29.057Z,7.10
2018-05-15T20:01:56.547Z,13.90
2018-05-15T20:04:24.098Z,15.27
2018-05-15T20:06:51.652Z,9.37
2018-05-15T20:09:19.212Z,11.43
2018-05-15T20:11:46.697Z,11.27
2018-05-15T20:14:14.953Z,9.90
2018-05-15T20:16:42.420Z,9.47
2018-05-15T20:19:09.877Z,9.53
2018-05-15T20:21:37.428Z,8.90
2018-05-15T20:24:04.900Z,8.90
2018-05-15T20:26:32.362Z,13.20
2018-05-15T20:29:00.633Z,10.40
2018-05-15T20:31:28.180Z,12.50
2018-05-15T20:33:55.732Z,8.30
2018-05-15T20:36:23.203Z,9.70
2018-05-15T20:38:50.664Z,7.60
2018-05-15T20:41:18.124Z,9.03
2018-05-15T20:43:45.587Z,7.97
2018-05-15T20:46:13.052Z,14.73
2018-05-15T20:48:41.292Z,8.67
2018-05-15T20:51:08.831Z,8.07
2018-05-15T20:53:36.323Z,8.13
2018-05-15T20:56:03.785Z,8.63
2018-05-15T20:58:31.712Z,9.03
2018-05-15T21:00:59.272Z,8.57
2018-05-15T21:03:26.729Z,8.77
2018-05-15T21:05:54.196Z,10.57
2018-05-15T21:08:21.709Z,9.87
2018-05-15T21:10:49.214Z,10.17
2018-05-15T21:13:16.709Z,9.73
2018-05-15T21:15:44.176Z,10.20
2018-05-15T21:18:11.647Z,12.03
2018-05-15T21:20:39.963Z,12.13
2018-05-15T21:23:07.468Z,12.13
2018-05-15T21:25:34.936Z,11.40
2018-05-15T21:28:02.405Z,11.97
2018-05-15T21:30:30.632Z,12.93
2018-05-15T21:32:58.216Z,12.67
2018-05-15T21:35:25.773Z,12.33
2018-05-15T21:37:53.251Z,11.93
2018-05-15T21:40:20.720Z,12.43
2018-05-15T21:42:48.952Z,12.57
2018-05-15T21:45:16.430Z,13.27
2018-05-15T21:47:43.988Z,12.17
2018-05-15T21:50:11.544Z,12.23
2018-05-15T21:52:39.027Z,14.27
2018-05-15T21:55:06.478Z,12.30
2018-05-15T21:57:33.953Z,12.93
2018-05-15T22:00:02.245Z,13.47
2018-05-15T22:02:29.752Z,12.43
2018-05-15T22:04:57.316Z,13.30
2018-05-15T22:07:24.785Z,12.50
2018-05-15T22:09:52.246Z,13.20
2018-05-15T22:12:31.641Z,12.30
2018-05-15T22:15:11.108Z,12.40
2018-05-15T22:17:50.960Z,12.70
2018-05-15T22:20:30.510Z,12.53
2018-05-15T22:22:57.415Z,12.63
2018-05-15T22:25:24.888Z,13.90
2018-05-15T22:27:52.465Z,13.57
2018-05-15T22:30:19.948Z,13.57
2018-05-15T22:32:48.180Z,12.67
2018-05-15T22:35:15.644Z,12.70
2018-05-15T22:37:43.121Z,13.90
2018-05-15T22:40:10.586Z,13.40
2018-05-15T22:42:38.052Z,13.17
2018-05-15T22:45:05.596Z,14.13
2018-05-15T22:47:33.904Z,12.87
2018-05-15T22:50:01.329Z,13.77
2018-05-15T22:52:28.800Z,13.47
2018-05-15T22:54:56.284Z,13.63
2018-05-15T22:57:23.864Z,14.80
2018-05-15T22:59:51.322Z,14.40
2018-05-15T23:02:18.817Z,14.00
2018-05-15T23:04:46.444Z,14.73
2018-05-15T23:07:13.945Z,14.80
2018-05-15T23:09:41.504Z,13.63
2018-05-15T23:12:09.065Z,14.57
2018-05-15T23:14:36.529Z,15.53
2018-05-15T23:17:03.985Z,16.50
2018-05-15T23:19:31.542Z,14.40
2018-05-15T23:21:59.097Z,14.63
2018-05-15T23:24:26.659Z,15.17
2018-05-15T23:26:54.261Z,15.83
2018-05-15T23:29:22.553Z,15.90
2018-05-15T23:31:49.952Z,16.30
2018-05-15T23:34:17.422Z,16.33
2018-05-15T23:36:44.876Z,16.40
2018-05-15T23:39:12.345Z,14.93
2018-05-15T23:41:39.805Z,15.43
2018-05-15T23:44:07.409Z,15.07
2018-05-15T23:46:34.971Z,15.60
2018-05-15T23:49:02.469Z,14.67
2018-05-15T23:51:30.029Z,14.33
2018-05-15T23:53:57.593Z,14.30
2018-05-15T23:56:25.061Z,15.30
2018-05-15T23:58:52.528Z,14.97
